Terminal Aerodrome Forecast
Issued by NWS Cleveland, OH

Home | Current Version | Previous Version | Graphics & Text | Print | Product List | Glossary Off
Versions: 1 2 3 4 5 6 7 8 9 10 11 12 13 14 15 16

000
FTUS41 KCLE 181700
TAFMFD
TAF
KMFD 181726Z 1818/1918 02010KT P6SM FEW050 SCT250
     FM191500 11012G20KT P6SM SCT060 OVC100
     FM191700 11012G20KT P6SM -SHRA BKN060 OVC100=

USA.gov is the U.S. government's official web portal to all federal, state and local government web resources and services.